createdAt,value
2023-01-30T09:56:03.622Z,100595.25
2023-01-30T10:01:58.405Z,100589.72
2023-01-30T10:07:38.190Z,100596.72
2023-01-30T10:13:10.209Z,100612.72
2023-01-30T10:24:29.297Z,100593.88
2023-01-30T10:40:37.507Z,100574.50
2023-01-30T11:14:05.720Z,100569.47
2023-01-30T11:24:43.933Z,100566.97
2023-01-30T11:29:45.729Z,100581.13
2023-01-30T11:35:04.986Z,100588.84
2023-01-30T11:40:19.629Z,100605.50
2023-01-30T11:50:49.654Z,100597.50
2023-01-30T11:56:02.905Z,100582.16
2023-01-30T12:01:09.383Z,100577.16
2023-01-30T12:06:14.798Z,100555.81
2023-01-30T12:11:26.846Z,100549.31
2023-01-30T12:16:51.077Z,100543.34
2023-01-30T12:22:01.609Z,100542.31
2023-01-30T12:27:06.364Z,100540.47
2023-01-30T12:32:14.310Z,100540.69
2023-01-30T12:37:41.031Z,100526.50
2023-01-30T12:43:03.267Z,100540.69
2023-01-30T12:48:17.684Z,100541.31
2023-01-30T12:54:07.926Z,100538.66
2023-01-30T13:05:07.396Z,100550.16
2023-01-30T13:40:06.888Z,100565.66
2023-01-30T14:07:31.256Z,100611.38
2023-01-30T15:34:52.442Z,100751.00
2023-01-30T15:40:18.030Z,100755.50
2023-01-30T15:45:28.679Z,100751.00
2023-01-30T15:50:37.657Z,100759.81
2023-01-30T15:55:44.691Z,100756.31
2023-01-30T16:17:50.481Z,100799.00
2023-01-30T16:39:56.782Z,100829.38
2023-01-30T16:45:33.041Z,100839.00
2023-01-30T16:50:38.279Z,100856.03
2023-01-30T16:56:13.366Z,100859.69
2023-01-30T17:01:15.603Z,100866.69
2023-01-30T17:12:36.375Z,100884.72
2023-01-30T17:17:39.481Z,100897.69
2023-01-30T17:22:49.502Z,100902.03
2023-01-30T17:27:55.574Z,100910.03
2023-01-30T17:32:59.610Z,100919.69
2023-01-30T17:38:06.104Z,100931.19
2023-01-30T17:43:15.578Z,100938.19
2023-01-30T17:48:21.574Z,100941.84
2023-01-30T17:53:56.732Z,100970.19
2023-01-30T17:59:00.671Z,100965.69
2023-01-30T18:04:02.632Z,100971.84
2023-01-30T18:09:07.481Z,100968.53
2023-01-30T18:14:10.542Z,100983.69
2023-01-30T18:19:13.930Z,100990.72
2023-01-30T18:24:21.435Z,101003.03
2023-01-30T18:29:32.822Z,101013.22
2023-01-30T18:34:37.202Z,101018.38
2023-01-30T18:39:47.519Z,101012.88
2023-01-30T18:44:57.704Z,101033.38
2023-01-30T18:50:10.574Z,101031.72
2023-01-30T18:55:14.527Z,101043.03
2023-01-30T19:00:17.671Z,101041.19
2023-01-30T19:05:19.650Z,101042.22
2023-01-30T19:10:23.647Z,101054.53
2023-01-30T19:15:35.537Z,101065.41
2023-01-30T19:20:40.399Z,101065.41
2023-01-30T19:25:44.097Z,101065.56
2023-01-30T19:30:51.857Z,101070.53
2023-01-30T19:35:56.350Z,101074.88
2023-01-30T19:41:02.824Z,101079.72
2023-01-30T19:46:13.634Z,101083.72
2023-01-30T19:51:17.248Z,101092.72
2023-01-30T19:56:19.314Z,101098.03
2023-01-30T20:01:37.728Z,101099.88
2023-01-30T20:06:42.817Z,101107.22
2023-01-30T20:11:48.973Z,101106.03
2023-01-30T20:16:50.797Z,101115.06
2023-01-30T20:21:55.932Z,101133.38
2023-01-30T20:27:00.603Z,101134.75
2023-01-30T20:32:02.305Z,101135.75
2023-01-30T22:01:35.563Z,101276.78
2023-01-30T22:06:37.822Z,101284.13
2023-01-30T22:11:56.444Z,101291.13
2023-01-30T22:17:07.555Z,101299.97
2023-01-30T22:22:13.387Z,101298.13
2023-01-30T22:27:20.207Z,101300.63
2023-01-30T22:32:37.380Z,101300.97
2023-01-30T22:37:42.341Z,101299.28
2023-01-30T22:42:50.761Z,101306.13
2023-01-30T22:48:12.657Z,101307.97
2023-01-30T22:54:58.628Z,101299.13
2023-01-30T22:59:09.839Z,101303.44
2023-01-30T23:04:34.463Z,101300.78
2023-01-30T23:09:37.968Z,101302.47
2023-01-30T23:14:42.975Z,101292.31
2023-01-30T23:19:58.239Z,101288.31
2023-01-30T23:25:02.749Z,101283.78
2023-01-30T23:30:15.295Z,101298.97
2023-01-30T23:35:17.828Z,101301.63
2023-01-30T23:40:23.431Z,101306.47
2023-01-30T23:45:35.193Z,101307.97
2023-01-30T23:50:42.872Z,101296.47
2023-01-30T23:55:54.613Z,101291.28
